Time;durP1;ratioP1;P1;durP2;ratioP2;P2;SDS_P1;SDS_P2;PMS_P1;PMS_P2;Temp;Humidity;BMP_temperature;BMP_pressure;BME280_temperature;BME280_humidity;BME280_pressure;Samples;Min_cycle;Max_cycle;Signal;HPM_P1;HPM_P2
2022/08/19 05:00:39;;;;;;;28.30;25.57;;;22.20;97.20;;;;;;1740276;28;20596;-77
2022/08/19 05:01:32;;;;;;;26.35;23.92;;;22.20;97.20;;;;;;1739707;28;20215;-77
2022/08/19 05:02:25;;;;;;;27.35;24.65;;;22.20;97.20;;;;;;1734755;28;20957;-77
2022/08/19 05:03:16;;;;;;;27.20;24.42;;;22.20;97.20;;;;;;1734687;28;20239;-77
2022/08/19 05:04:08;;;;;;;26.30;23.70;;;22.20;97.20;;;;;;1734650;28;20204;-77
2022/08/19 05:05:00;;;;;;;28.58;25.77;;;22.10;97.20;;;;;;1734177;28;20204;-77
2022/08/19 05:05:52;;;;;;;27.33;24.80;;;22.10;97.20;;;;;;1734408;28;20216;-77
2022/08/19 05:06:43;;;;;;;26.58;23.77;;;22.10;97.20;;;;;;1734585;28;20600;-76
2022/08/19 05:07:35;;;;;;;26.93;24.30;;;22.10;97.20;;;;;;1734626;28;20203;-77
2022/08/19 05:08:26;;;;;;;28.85;25.90;;;22.10;97.20;;;;;;1734372;28;20211;-77
2022/08/19 05:09:17;;;;;;;26.83;24.33;;;22.10;97.20;;;;;;1734597;28;20242;-77
2022/08/19 05:10:09;;;;;;;26.45;23.65;;;22.10;97.20;;;;;;1734351;28;20678;-76
2022/08/19 05:11:01;;;;;;;27.65;24.95;;;22.00;97.20;;;;;;1734322;28;20630;-77
2022/08/19 05:11:53;;;;;;;27.50;24.55;;;22.10;97.20;;;;;;1734041;28;20200;-77
2022/08/19 05:12:45;;;;;;;26.88;24.30;;;22.00;97.20;;;;;;1734192;28;20195;-77
2022/08/19 05:13:35;;;;;;;27.90;25.10;;;22.00;97.20;;;;;;1734521;28;20291;-77
2022/08/19 05:14:29;;;;;;;26.57;23.93;;;22.00;97.20;;;;;;1734287;28;20298;-76
2022/08/19 05:15:19;;;;;;;27.10;24.50;;;22.00;97.20;;;;;;1733939;28;20204;-77
2022/08/19 05:16:13;;;;;;;26.40;24.00;;;22.00;97.20;;;;;;1734188;28;20204;-77
2022/08/19 05:17:04;;;;;;;26.23;23.75;;;22.00;97.20;;;;;;1731177;28;20196;-77
2022/08/19 05:22:34;;;;;;;28.35;25.60;;;22.00;97.20;;;;;;1729256;28;20230;-75
2022/08/19 05:23:26;;;;;;;28.05;25.45;;;22.00;97.20;;;;;;1735517;28;20586;-76
2022/08/19 05:24:18;;;;;;;26.55;24.00;;;21.90;97.20;;;;;;1734374;28;20199;-77
2022/08/19 05:25:13;;;;;;;27.95;25.35;;;21.90;97.20;;;;;;1733602;28;20195;-77
2022/08/19 05:26:05;;;;;;;26.73;24.17;;;21.90;97.20;;;;;;1732885;28;20224;-77
2022/08/19 05:26:57;;;;;;;30.83;23.52;;;21.90;97.20;;;;;;1731619;28;20196;-77
2022/08/19 05:27:48;;;;;;;26.67;24.17;;;21.90;97.20;;;;;;1728671;28;20576;-77
2022/08/19 05:28:40;;;;;;;26.77;24.17;;;21.90;97.20;;;;;;1728824;28;20396;-78
2022/08/19 05:29:34;;;;;;;24.60;22.40;;;21.90;97.20;;;;;;1728726;28;20569;-78
2022/08/19 05:32:16;;;;;;;26.08;23.60;;;21.90;97.20;;;;;;1728677;28;20239;-76
2022/08/19 05:33:11;;;;;;;25.33;22.92;;;22.00;97.20;;;;;;1728618;28;20211;-78
2022/08/19 05:34:04;;;;;;;27.30;24.42;;;22.00;97.20;;;;;;1728840;28;20295;-77
2022/08/19 05:34:55;;;;;;;27.73;25.13;;;22.00;97.20;;;;;;1728717;28;20287;-77
2022/08/19 05:35:49;;;;;;;26.10;23.70;;;22.00;97.20;;;;;;1732097;28;20222;-77
2022/08/19 05:36:43;;;;;;;25.92;23.33;;;22.00;97.20;;;;;;1735105;28;20764;-76
2022/08/19 05:37:34;;;;;;;27.27;24.77;;;22.00;97.20;;;;;;1735707;28;20233;-79
2022/08/19 05:38:27;;;;;;;26.80;24.30;;;21.90;97.20;;;;;;1735499;28;20580;-77
2022/08/19 05:39:21;;;;;;;25.65;23.17;;;22.00;97.20;;;;;;1735462;28;20709;-76
2022/08/19 05:40:12;;;;;;;27.52;25.08;;;22.00;97.20;;;;;;1735603;28;20192;-77
2022/08/19 05:41:09;;;;;;;27.33;24.53;;;22.00;97.20;;;;;;1735086;28;20211;-75
2022/08/19 05:42:06;;;;;;;27.63;24.92;;;22.00;97.20;;;;;;1735531;28;20470;-76
2022/08/19 05:42:58;;;;;;;27.20;24.50;;;22.00;97.20;;;;;;1735121;28;20203;-76
2022/08/19 05:43:50;;;;;;;27.23;24.73;;;22.00;97.20;;;;;;1735146;28;20207;-77
2022/08/19 05:44:44;;;;;;;26.58;24.08;;;22.00;97.20;;;;;;1735149;28;20203;-78
2022/08/19 05:45:39;;;;;;;26.27;23.77;;;22.00;97.20;;;;;;1732230;28;20216;-77
2022/08/19 05:46:31;;;;;;;26.20;23.73;;;22.00;97.20;;;;;;1728652;28;20224;-77
2022/08/19 05:47:23;;;;;;;26.30;23.77;;;22.00;97.20;;;;;;1728714;28;20215;-77
2022/08/19 05:48:20;;;;;;;26.65;24.05;;;22.00;97.20;;;;;;1728446;28;20652;-76
2022/08/19 05:49:11;;;;;;;26.55;24.02;;;22.00;97.20;;;;;;1728316;28;20201;-77
2022/08/19 05:50:03;;;;;;;26.07;23.47;;;22.00;97.20;;;;;;1728455;28;20193;-77
2022/08/19 05:50:54;;;;;;;24.65;22.35;;;22.00;97.20;;;;;;1728180;28;20736;-77
2022/08/19 05:51:45;;;;;;;25.03;22.73;;;22.00;97.20;;;;;;1728565;28;20760;-76
2022/08/19 05:52:37;;;;;;;27.40;24.80;;;22.00;97.20;;;;;;1728736;28;20212;-76
2022/08/19 05:53:29;;;;;;;26.85;24.35;;;22.00;97.20;;;;;;1728031;28;20605;-77
2022/08/19 05:54:21;;;;;;;26.00;23.40;;;22.00;97.20;;;;;;1726985;28;20596;-77
2022/08/19 05:55:13;;;;;;;25.48;22.92;;;22.00;97.20;;;;;;1727728;28;20316;-77
2022/08/19 05:56:05;;;;;;;26.42;23.83;;;22.10;97.20;;;;;;1729558;28;20262;-77
2022/08/19 05:56:56;;;;;;;23.90;21.70;;;22.10;97.20;;;;;;1733058;28;20196;-77
2022/08/19 05:57:47;;;;;;;24.67;22.27;;;22.10;97.20;;;;;;1735084;28;20651;-77
2022/08/19 05:58:39;;;;;;;24.70;22.30;;;22.10;97.20;;;;;;1732155;28;20610;-77
2022/08/19 05:59:30;;;;;;;25.13;22.73;;;22.10;97.20;;;;;;1730507;28;20659;-77
2022/08/19 06:00:22;;;;;;;26.27;23.70;;;22.10;97.20;;;;;;1734420;28;20952;-77
2022/08/19 06:01:16;;;;;;;24.85;22.65;;;22.10;97.20;;;;;;1728185;28;20801;-77
2022/08/19 06:02:08;;;;;;;25.90;23.40;;;22.10;97.20;;;;;;1728475;28;20229;-76
2022/08/19 06:03:02;;;;;;;25.33;22.25;;;22.10;97.20;;;;;;1728388;28;20228;-76
2022/08/19 06:03:55;;;;;;;25.35;22.85;;;22.10;97.20;;;;;;1728656;28;20208;-77
2022/08/19 06:04:45;;;;;;;25.30;22.95;;;22.10;97.20;;;;;;1728447;28;20200;-77
2022/08/19 06:05:37;;;;;;;26.03;23.53;;;22.20;97.20;;;;;;1728438;28;20221;-77
2022/08/19 06:06:28;;;;;;;27.23;24.67;;;22.10;97.20;;;;;;1728780;28;20451;-77
2022/08/19 06:07:20;;;;;;;24.27;22.07;;;22.20;97.20;;;;;;1729157;28;20287;-76
2022/08/19 06:08:11;;;;;;;27.20;24.60;;;22.10;97.20;;;;;;1730638;28;20439;-76
2022/08/19 06:09:04;;;;;;;24.80;22.27;;;22.20;97.20;;;;;;1735978;28;20196;-77
2022/08/19 06:09:55;;;;;;;25.23;22.88;;;22.20;97.20;;;;;;1735326;28;20200;-76
2022/08/19 06:10:47;;;;;;;24.58;22.15;;;22.10;97.20;;;;;;1735087;28;20265;-77
2022/08/19 06:11:40;;;;;;;25.33;22.80;;;22.10;97.20;;;;;;1735782;28;20204;-76
2022/08/19 06:12:34;;;;;;;25.52;23.00;;;22.10;97.20;;;;;;1735936;28;20288;-76
2022/08/19 06:13:25;;;;;;;24.30;22.08;;;22.10;97.20;;;;;;1735952;28;20204;-76
2022/08/19 06:14:20;;;;;;;23.70;21.50;;;22.10;97.20;;;;;;1735574;28;20199;-76
2022/08/19 06:15:13;;;;;;;27.02;24.25;;;22.10;97.20;;;;;;1735231;28;20211;-76
2022/08/19 06:16:05;;;;;;;23.77;21.63;;;22.10;97.20;;;;;;1735116;28;20208;-76
2022/08/19 06:16:56;;;;;;;26.67;23.92;;;22.10;97.20;;;;;;1735043;28;20204;-77
2022/08/19 06:17:48;;;;;;;25.27;22.87;;;22.10;97.20;;;;;;1735145;28;20282;-76
2022/08/19 06:18:40;;;;;;;24.95;22.65;;;22.10;97.20;;;;;;1735114;28;20450;-77
2022/08/19 06:19:32;;;;;;;24.83;22.50;;;22.10;97.20;;;;;;1735039;28;20293;-77
2022/08/19 06:20:23;;;;;;;26.60;24.00;;;22.10;97.20;;;;;;1734846;28;20249;-77
2022/08/19 06:21:15;;;;;;;25.67;23.27;;;22.10;97.20;;;;;;1734878;28;20254;-77
2022/08/19 06:22:06;;;;;;;25.88;23.30;;;22.10;97.20;;;;;;1735060;28;20210;-77
2022/08/19 06:22:58;;;;;;;26.25;23.85;;;22.10;97.20;;;;;;1735096;28;20263;-76
2022/08/19 06:23:51;;;;;;;25.52;23.20;;;22.10;97.20;;;;;;1735016;28;20669;-77
2022/08/19 06:24:43;;;;;;;25.08;22.75;;;22.10;97.20;;;;;;1735226;28;20263;-76
2022/08/19 06:25:34;;;;;;;23.83;21.52;;;22.10;97.20;;;;;;1735082;28;20223;-76
2022/08/19 06:26:27;;;;;;;25.20;22.90;;;22.10;97.20;;;;;;1735072;28;20279;-77
2022/08/19 06:27:17;;;;;;;26.23;23.77;;;22.10;97.20;;;;;;1735161;28;20216;-76
2022/08/19 06:28:10;;;;;;;24.13;21.93;;;22.10;97.20;;;;;;1735093;28;20204;-76
2022/08/19 06:29:01;;;;;;;24.88;22.40;;;22.20;97.20;;;;;;1734240;28;20231;-77
2022/08/19 06:29:53;;;;;;;24.63;22.33;;;22.20;97.20;;;;;;1735006;28;20192;-76
2022/08/19 06:30:44;;;;;;;24.33;22.13;;;22.20;97.20;;;;;;1734849;28;20211;-77
2022/08/19 06:31:38;;;;;;;25.63;23.30;;;22.20;97.20;;;;;;1735102;28;20203;-76
2022/08/19 06:32:29;;;;;;;25.80;23.15;;;22.20;97.20;;;;;;1734711;28;20200;-79
2022/08/19 06:33:21;;;;;;;26.43;23.73;;;22.20;97.20;;;;;;1735204;28;20222;-77
2022/08/19 06:34:13;;;;;;;25.30;22.80;;;22.20;97.20;;;;;;1734957;28;20204;-77
2022/08/19 06:35:06;;;;;;;25.17;22.88;;;22.20;97.20;;;;;;1734754;28;20200;-77
2022/08/19 06:35:57;;;;;;;26.55;23.60;;;22.20;97.20;;;;;;1734980;28;20219;-76
2022/08/19 06:36:51;;;;;;;26.33;23.73;;;22.20;97.20;;;;;;1734953;28;20209;-76
2022/08/19 06:37:42;;;;;;;25.95;23.45;;;22.20;97.20;;;;;;1735046;28;20206;-76
2022/08/19 06:38:34;;;;;;;27.60;24.90;;;22.20;97.20;;;;;;1734947;28;20196;-77
2022/08/19 06:39:30;;;;;;;27.35;24.75;;;22.20;97.20;;;;;;1735218;28;20214;-77
2022/08/19 06:40:22;;;;;;;26.27;23.88;;;22.20;97.20;;;;;;1735083;28;20199;-77
2022/08/19 06:41:13;;;;;;;26.40;23.67;;;22.20;97.20;;;;;;1734628;28;20203;-77
2022/08/19 06:42:09;;;;;;;25.77;23.38;;;22.20;97.20;;;;;;1734931;28;20701;-76
2022/08/19 06:43:01;;;;;;;26.13;23.73;;;22.20;97.20;;;;;;1735050;28;20219;-76
2022/08/19 06:43:54;;;;;;;25.70;23.23;;;22.20;97.20;;;;;;1734893;28;20258;-77
2022/08/19 06:44:46;;;;;;;25.90;23.50;;;22.20;97.20;;;;;;1734975;28;20211;-77
2022/08/19 06:45:39;;;;;;;25.70;23.30;;;22.20;97.20;;;;;;1734742;28;20226;-77
2022/08/19 06:46:30;;;;;;;24.52;22.08;;;22.20;97.20;;;;;;1734916;28;20234;-76
2022/08/19 06:47:22;;;;;;;25.25;22.73;;;22.20;97.20;;;;;;1734726;28;20196;-76
2022/08/19 06:48:13;;;;;;;25.58;23.17;;;22.20;97.20;;;;;;1731403;28;20192;-77
2022/08/19 06:49:06;;;;;;;25.87;23.37;;;22.20;97.20;;;;;;1730749;28;20191;-76
2022/08/19 06:50:01;;;;;;;23.35;21.30;;;22.20;97.20;;;;;;1734475;28;20251;-77
2022/08/19 06:50:53;;;;;;;26.67;24.17;;;22.20;97.20;;;;;;1734654;28;20203;-77
2022/08/19 06:51:47;;;;;;;25.70;23.30;;;22.30;97.20;;;;;;1734902;28;20208;-77
2022/08/19 06:52:39;;;;;;;25.10;22.75;;;22.30;97.20;;;;;;1735102;28;20701;-77
2022/08/19 06:53:29;;;;;;;25.17;22.88;;;22.30;97.20;;;;;;1734791;28;20239;-77
2022/08/19 06:54:22;;;;;;;25.60;23.20;;;22.30;97.20;;;;;;1734968;28;20295;-76
2022/08/19 06:55:13;;;;;;;28.13;25.33;;;22.30;97.20;;;;;;1734656;28;20584;-76
2022/08/19 06:56:05;;;;;;;25.42;23.13;;;22.30;97.20;;;;;;1734716;28;20195;-77
2022/08/19 06:56:57;;;;;;;26.55;24.02;;;22.30;97.20;;;;;;1735015;28;20200;-76
2022/08/19 06:57:50;;;;;;;25.42;22.95;;;22.40;97.20;;;;;;1734805;28;20199;-77
2022/08/19 06:58:41;;;;;;;25.85;23.23;;;22.40;97.20;;;;;;1733983;28;20242;-77
2022/08/19 06:59:33;;;;;;;29.37;24.40;;;22.40;97.20;;;;;;1734375;28;20196;-78
2022/08/19 07:00:24;;;;;;;25.02;22.73;;;22.40;97.20;;;;;;1734677;28;20443;-77
2022/08/19 07:01:16;;;;;;;24.83;22.53;;;22.40;97.20;;;;;;1734222;28;20283;-77
2022/08/19 07:02:07;;;;;;;26.98;24.38;;;22.40;97.20;;;;;;1734589;28;20207;-78
2022/08/19 07:03:00;;;;;;;26.60;24.20;;;22.40;97.20;;;;;;1734146;28;20273;-77
2022/08/19 07:03:51;;;;;;;24.23;22.02;;;22.40;97.20;;;;;;1731655;28;20200;-77
2022/08/19 07:04:42;;;;;;;26.40;23.90;;;22.30;97.20;;;;;;1730519;28;20284;-77
2022/08/19 07:05:38;;;;;;;26.42;23.90;;;22.30;97.20;;;;;;1730583;28;20239;-77
2022/08/19 07:06:30;;;;;;;26.60;24.10;;;22.30;97.20;;;;;;1727527;28;20201;-76
2022/08/19 07:07:22;;;;;;;25.95;23.60;;;22.30;97.20;;;;;;1727301;28;20215;-77
2022/08/19 07:08:13;;;;;;;27.33;24.80;;;22.30;97.20;;;;;;1727663;28;20200;-77
2022/08/19 07:09:06;;;;;;;25.65;22.90;;;22.30;97.20;;;;;;1727269;28;20208;-77
2022/08/19 07:09:57;;;;;;;25.27;22.67;;;22.30;97.20;;;;;;1727403;28;20586;-77
2022/08/19 07:10:48;;;;;;;26.13;23.60;;;22.30;97.20;;;;;;1727687;28;20205;-76
2022/08/19 07:11:45;;;;;;;27.33;24.77;;;22.30;97.20;;;;;;1734657;28;20200;-77
2022/08/19 07:12:36;;;;;;;26.58;24.17;;;22.40;97.20;;;;;;1734748;28;20663;-77
2022/08/19 07:13:27;;;;;;;25.87;23.30;;;22.40;97.20;;;;;;1734741;28;20754;-77
2022/08/19 07:14:21;;;;;;;24.80;22.20;;;22.40;97.20;;;;;;1734001;28;20227;-77
2022/08/19 07:15:15;;;;;;;26.38;23.92;;;22.40;97.20;;;;;;1734494;28;20271;-76
2022/08/19 07:16:07;;;;;;;25.25;22.80;;;22.40;97.20;;;;;;1734775;28;20679;-76
2022/08/19 07:16:59;;;;;;;26.70;24.20;;;22.40;97.20;;;;;;1734687;28;20254;-77
2022/08/19 07:17:50;;;;;;;26.92;24.17;;;22.40;97.20;;;;;;1734663;28;20219;-77
2022/08/19 07:18:42;;;;;;;26.17;23.57;;;22.40;97.20;;;;;;1734880;28;20298;-77
2022/08/19 07:19:34;;;;;;;26.48;24.08;;;22.40;97.20;;;;;;1734731;28;20204;-77
2022/08/19 07:20:26;;;;;;;25.92;23.35;;;22.40;97.20;;;;;;1734712;28;20199;-76
2022/08/19 07:21:20;;;;;;;25.42;23.17;;;22.40;97.20;;;;;;1734532;28;20210;-76
2022/08/19 07:22:13;;;;;;;28.33;25.60;;;22.40;97.20;;;;;;1734633;28;20196;-77
2022/08/19 07:23:03;;;;;;;24.35;21.90;;;22.30;97.20;;;;;;1734486;28;20241;-78
2022/08/19 07:23:56;;;;;;;25.47;22.97;;;22.30;97.20;;;;;;1735036;28;20207;-77
2022/08/19 07:24:47;;;;;;;26.80;24.08;;;22.30;97.20;;;;;;1734796;28;20236;-77
2022/08/19 07:25:39;;;;;;;26.57;24.10;;;22.30;97.20;;;;;;1734757;28;20306;-79
2022/08/19 07:26:32;;;;;;;23.63;21.52;;;22.30;97.20;;;;;;1734735;28;20207;-78
2022/08/19 07:27:24;;;;;;;25.35;23.00;;;22.30;97.20;;;;;;1734685;28;20210;-78
2022/08/19 07:28:14;;;;;;;25.33;23.02;;;22.30;97.20;;;;;;1734661;28;20203;-77
2022/08/19 07:29:07;;;;;;;26.93;24.33;;;22.30;97.20;;;;;;1734730;28;20300;-78
2022/08/19 07:29:58;;;;;;;25.48;23.08;;;22.30;97.20;;;;;;1734731;28;20695;-77
2022/08/19 07:30:50;;;;;;;26.00;23.60;;;22.30;97.20;;;;;;1734462;28;20206;-78
2022/08/19 07:31:41;;;;;;;24.45;22.35;;;22.30;97.20;;;;;;1734281;28;20216;-80
2022/08/19 07:32:33;;;;;;;24.90;22.60;;;22.30;97.20;;;;;;1734578;28;20208;-80
2022/08/19 07:33:24;;;;;;;26.33;23.83;;;22.30;97.20;;;;;;1734667;28;20200;-80
2022/08/19 07:34:16;;;;;;;24.50;22.30;;;22.20;97.20;;;;;;1734712;28;20290;-79
2022/08/19 07:35:08;;;;;;;26.17;23.60;;;22.20;97.20;;;;;;1734508;28;20666;-81
2022/08/19 07:36:00;;;;;;;24.95;22.65;;;22.20;97.20;;;;;;1734728;28;20247;-80
2022/08/19 07:36:53;;;;;;;24.20;22.00;;;22.20;97.20;;;;;;1734810;28;20204;-80
2022/08/19 07:37:45;;;;;;;25.20;22.80;;;22.20;97.20;;;;;;1734788;28;20210;-80
2022/08/19 07:38:35;;;;;;;25.42;23.02;;;22.20;97.20;;;;;;1734805;28;20814;-80
2022/08/19 07:39:31;;;;;;;25.23;23.00;;;22.20;97.20;;;;;;1734940;28;20545;-80
2022/08/19 07:40:23;;;;;;;25.90;23.48;;;22.20;97.20;;;;;;1734465;28;20442;-80
2022/08/19 07:41:18;;;;;;;25.10;22.70;;;22.20;97.20;;;;;;1733938;28;20204;-80
2022/08/19 07:42:10;;;;;;;25.63;23.40;;;22.20;97.20;;;;;;1734648;28;20208;-80
2022/08/19 07:43:02;;;;;;;24.52;22.42;;;22.20;97.20;;;;;;1734700;28;20200;-80
2022/08/19 07:43:53;;;;;;;24.70;22.40;;;22.10;97.20;;;;;;1734760;28;20201;-79
2022/08/19 07:44:45;;;;;;;24.63;22.27;;;22.10;97.20;;;;;;1735109;28;20294;-80
2022/08/19 07:45:36;;;;;;;23.60;21.50;;;22.10;97.20;;;;;;1735006;28;20231;-75
2022/08/19 07:46:28;;;;;;;24.37;22.20;;;22.10;97.20;;;;;;1741199;28;20227;-77
2022/08/19 07:47:19;;;;;;;23.80;21.50;;;22.10;97.20;;;;;;1742913;28;20462;-77
2022/08/19 07:48:10;;;;;;;23.77;21.57;;;22.10;97.20;;;;;;1741829;28;20200;-77
2022/08/19 07:49:03;;;;;;;24.63;22.40;;;22.10;97.20;;;;;;1741718;28;20183;-78
2022/08/19 07:49:55;;;;;;;24.63;22.33;;;22.10;97.20;;;;;;1737786;28;20261;-79
2022/08/19 07:50:46;;;;;;;24.45;22.15;;;22.10;97.20;;;;;;1735691;28;20203;-78
2022/08/19 07:51:37;;;;;;;23.50;21.30;;;22.10;97.20;;;;;;1735583;28;20259;-80
2022/08/19 07:52:29;;;;;;;23.83;21.63;;;22.10;97.20;;;;;;1735798;28;20208;-81
2022/08/19 07:53:22;;;;;;;25.67;23.05;;;22.10;97.20;;;;;;1735415;28;20199;-78
2022/08/19 07:54:13;;;;;;;23.10;20.98;;;22.10;97.20;;;;;;1735607;28;20200;-78
2022/08/19 07:55:11;;;;;;;24.02;21.83;;;22.10;97.20;;;;;;1735719;28;20278;-78
2022/08/19 07:56:03;;;;;;;23.90;21.70;;;22.10;97.20;;;;;;1735521;28;20595;-78
2022/08/19 07:56:55;;;;;;;25.00;22.58;;;22.10;97.20;;;;;;1735631;28;20261;-80
2022/08/19 07:57:46;;;;;;;24.05;21.75;;;22.10;97.20;;;;;;1735988;28;20234;-81
2022/08/19 07:58:41;;;;;;;23.30;21.23;;;22.10;97.20;;;;;;1735058;28;20207;-81
2022/08/19 07:59:32;;;;;;;22.23;20.30;;;22.10;97.20;;;;;;1735082;28;20212;-79
2022/08/19 08:00:24;;;;;;;23.53;21.33;;;22.10;97.20;;;;;;1734634;28;20208;-76
2022/08/19 08:01:17;;;;;;;23.10;21.00;;;22.10;97.20;;;;;;1733966;28;20454;-77
2022/08/19 08:02:09;;;;;;;23.02;20.92;;;22.10;97.20;;;;;;1734241;28;20199;-77
2022/08/19 08:03:00;;;;;;;24.60;22.20;;;22.10;97.20;;;;;;1731326;28;20205;-77
2022/08/19 08:09:46;;;;;;;21.50;19.52;;;22.10;97.20;;;;;;1729044;28;20208;-77
2022/08/19 08:10:37;;;;;;;24.48;22.10;;;22.10;97.20;;;;;;1728882;28;20208;-77
2022/08/19 08:11:29;;;;;;;23.42;21.13;;;22.10;97.20;;;;;;1734402;28;20740;-77
2022/08/19 08:12:24;;;;;;;24.88;22.60;;;22.10;97.20;;;;;;1734623;28;20200;-77
2022/08/19 08:13:16;;;;;;;23.77;21.38;;;22.20;97.20;;;;;;1734718;28;20196;-77
2022/08/19 08:14:07;;;;;;;23.05;20.65;;;22.20;97.20;;;;;;1735090;28;20207;-77
2022/08/19 08:15:02;;;;;;;23.67;21.53;;;22.20;97.20;;;;;;1735532;28;20224;-77
2022/08/19 08:15:53;;;;;;;23.08;20.92;;;22.20;97.20;;;;;;1734927;28;20569;-77
2022/08/19 08:16:46;;;;;;;24.73;21.95;;;22.20;97.20;;;;;;1734156;28;20199;-77
2022/08/19 08:17:38;;;;;;;22.85;20.63;;;22.20;97.20;;;;;;1734270;28;20653;-77
2022/08/19 08:18:31;;;;;;;23.55;21.10;;;22.20;97.20;;;;;;1734812;28;20310;-77
2022/08/19 08:19:24;;;;;;;24.65;22.35;;;22.20;97.20;;;;;;1734953;28;20227;-77
2022/08/19 08:20:16;;;;;;;23.13;21.10;;;22.20;97.20;;;;;;1735034;28;20199;-77
2022/08/19 08:21:07;;;;;;;24.45;22.25;;;22.20;97.20;;;;;;1734778;28;20203;-78
2022/08/19 08:22:00;;;;;;;23.53;21.33;;;22.30;97.20;;;;;;1734254;28;20192;-78
2022/08/19 08:24:02;;;;;;;24.23;21.83;;;22.30;97.20;;;;;;1734543;28;20243;-78
2022/08/19 08:24:54;;;;;;;24.15;22.02;;;22.20;97.20;;;;;;1734711;28;20196;-77
2022/08/19 08:25:45;;;;;;;24.58;22.38;;;22.20;97.20;;;;;;1734816;28;20235;-78
2022/08/19 08:26:37;;;;;;;24.53;22.33;;;22.20;97.20;;;;;;1734701;28;20204;-79
2022/08/19 08:27:29;;;;;;;24.70;22.23;;;22.20;97.20;;;;;;1734729;28;20203;-78
2022/08/19 08:28:21;;;;;;;23.90;21.50;;;22.20;97.20;;;;;;1734676;28;20238;-77
2022/08/19 08:29:12;;;;;;;23.90;21.70;;;22.20;97.20;;;;;;1734631;28;20575;-78
2022/08/19 08:30:08;;;;;;;22.70;20.48;;;22.20;97.20;;;;;;1733831;28;20207;-77
2022/08/19 08:30:59;;;;;;;25.40;23.08;;;22.20;97.20;;;;;;1733524;28;20295;-77
2022/08/19 08:31:51;;;;;;;24.47;22.20;;;22.30;97.20;;;;;;1734469;28;20254;-78
2022/08/19 08:32:42;;;;;;;26.35;23.95;;;22.30;97.20;;;;;;1734414;28;20477;-78
2022/08/19 08:33:34;;;;;;;24.55;22.30;;;22.30;97.20;;;;;;1733709;28;20204;-78
2022/08/19 08:34:25;;;;;;;25.17;22.65;;;22.30;97.20;;;;;;1733663;28;20204;-77
2022/08/19 08:35:20;;;;;;;24.70;22.50;;;22.30;97.20;;;;;;1733573;28;20280;-77
2022/08/19 08:36:13;;;;;;;24.15;21.80;;;22.30;97.20;;;;;;1733727;28;20204;-77
2022/08/19 08:37:04;;;;;;;26.60;23.83;;;22.30;97.20;;;;;;1733607;28;20745;-78
2022/08/19 08:37:56;;;;;;;24.17;22.00;;;22.30;97.20;;;;;;1733807;28;20317;-77
2022/08/19 08:38:47;;;;;;;26.50;23.60;;;22.30;97.20;;;;;;1733536;28;20227;-77
2022/08/19 08:39:41;;;;;;;25.60;23.23;;;22.30;97.20;;;;;;1733834;28;20238;-77
2022/08/19 08:40:39;;;;;;;23.65;21.55;;;22.30;97.20;;;;;;1733775;28;20265;-77
2022/08/19 08:41:38;;;;;;;24.90;22.30;;;22.30;97.20;;;;;;1733668;28;20204;-77
2022/08/19 08:42:34;;;;;;;25.05;22.70;;;22.20;97.20;;;;;;1733539;28;20211;-77
2022/08/19 08:43:30;;;;;;;25.83;23.48;;;22.20;97.20;;;;;;1733575;28;20291;-77
2022/08/19 08:44:28;;;;;;;24.27;22.15;;;22.20;97.20;;;;;;1733626;28;20207;-78
2022/08/19 08:45:21;;;;;;;23.90;21.52;;;22.20;97.20;;;;;;1733695;28;20208;-77
2022/08/19 08:46:17;;;;;;;26.08;23.73;;;22.20;97.20;;;;;;1734025;28;20203;-77
2022/08/19 08:47:15;;;;;;;25.83;23.40;;;22.20;97.20;;;;;;1733785;28;20199;-77
2022/08/19 08:48:16;;;;;;;24.63;22.25;;;22.20;97.20;;;;;;1733761;28;20667;-77
2022/08/19 08:49:28;;;;;;;25.40;23.00;;;22.20;97.20;;;;;;1733700;28;20199;-77
2022/08/19 08:50:24;;;;;;;26.40;24.00;;;22.20;97.20;;;;;;1734142;28;20214;-77
2022/08/19 08:51:21;;;;;;;24.88;22.58;;;22.20;97.20;;;;;;1734166;28;20323;-77
2022/08/19 08:52:20;;;;;;;24.58;22.13;;;22.10;97.20;;;;;;1733535;28;20208;-77
2022/08/19 08:53:15;;;;;;;26.10;23.65;;;22.20;97.20;;;;;;1733568;28;20227;-77
2022/08/19 08:54:18;;;;;;;25.50;23.05;;;22.20;97.20;;;;;;1733463;28;20200;-77
2022/08/19 08:55:13;;;;;;;27.42;24.75;;;22.10;97.20;;;;;;1733747;28;20211;-77
2022/08/19 08:56:12;;;;;;;28.90;26.40;;;22.10;97.20;;;;;;1733886;28;20211;-77
2022/08/19 08:57:10;;;;;;;26.25;23.95;;;22.10;97.20;;;;;;1734145;28;20223;-77
2022/08/19 08:58:05;;;;;;;27.05;24.48;;;22.10;97.20;;;;;;1734294;28;20227;-77
2022/08/19 08:59:03;;;;;;;26.88;24.27;;;22.10;97.20;;;;;;1733920;28;20637;-77
2022/08/19 08:59:56;;;;;;;26.95;24.50;;;22.10;97.20;;;;;;1733846;28;20204;-76
2022/08/19 09:00:50;;;;;;;25.50;23.10;;;22.10;97.20;;;;;;1733798;28;20199;-77
2022/08/19 09:01:40;;;;;;;25.63;23.33;;;22.10;97.20;;;;;;1734119;28;20773;-78
2022/08/19 09:02:32;;;;;;;26.77;24.33;;;22.10;97.20;;;;;;1734136;28;20655;-77
2022/08/19 09:03:27;;;;;;;24.52;22.17;;;22.10;97.20;;;;;;1734182;28;20214;-77
2022/08/19 09:04:19;;;;;;;26.42;24.02;;;22.10;97.20;;;;;;1734269;28;20210;-77
2022/08/19 09:05:12;;;;;;;25.30;23.10;;;22.10;97.20;;;;;;1734158;28;20207;-77
2022/08/19 09:06:08;;;;;;;26.80;24.30;;;22.10;97.20;;;;;;1734092;28;20202;-77
2022/08/19 09:07:26;;;;;;;24.92;22.52;;;22.10;97.20;;;;;;1734120;28;20204;-77
2022/08/19 09:08:29;;;;;;;26.08;23.67;;;22.10;97.20;;;;;;1734210;28;20207;-76
2022/08/19 09:09:30;;;;;;;26.30;23.80;;;22.10;97.20;;;;;;1734207;28;20214;-77
2022/08/19 09:10:29;;;;;;;25.83;23.42;;;22.10;97.20;;;;;;1733888;28;20261;-77
2022/08/19 09:11:33;;;;;;;27.77;25.17;;;22.10;97.20;;;;;;1733905;28;20238;-77
2022/08/19 09:12:31;;;;;;;25.33;23.13;;;22.10;97.20;;;;;;1733986;28;20207;-77
2022/08/19 09:13:31;;;;;;;25.27;22.98;;;22.10;97.20;;;;;;1734038;28;20203;-76
2022/08/19 09:14:34;;;;;;;26.77;24.25;;;22.10;97.20;;;;;;1734150;28;20204;-77
2022/08/19 09:15:33;;;;;;;26.48;23.60;;;22.10;97.20;;;;;;1733858;28;20219;-77
2022/08/19 09:16:27;;;;;;;26.10;23.70;;;22.10;97.20;;;;;;1734143;28;20206;-77
2022/08/19 09:17:27;;;;;;;25.65;23.50;;;22.10;97.20;;;;;;1734083;28;20659;-77
2022/08/19 09:18:18;;;;;;;25.60;23.30;;;22.10;97.20;;;;;;1734117;28;20643;-77
2022/08/19 09:19:10;;;;;;;26.00;23.40;;;22.10;97.20;;;;;;1733728;28;20257;-77
2022/08/19 09:20:08;;;;;;;25.77;23.17;;;22.10;97.20;;;;;;1734094;28;20208;-76
2022/08/19 09:21:00;;;;;;;26.33;23.67;;;22.10;97.20;;;;;;1733869;28;20279;-77
2022/08/19 09:21:50;;;;;;;26.30;23.85;;;22.10;97.20;;;;;;1734021;28;20207;-77
2022/08/19 09:22:44;;;;;;;26.20;23.70;;;22.10;97.20;;;;;;1734124;28;20213;-77
2022/08/19 09:23:35;;;;;;;26.15;23.73;;;22.10;97.20;;;;;;1734040;28;20291;-77
2022/08/19 09:24:27;;;;;;;27.17;24.57;;;22.10;97.20;;;;;;1734110;28;20199;-77
2022/08/19 09:25:21;;;;;;;25.50;23.00;;;22.10;97.20;;;;;;1734050;28;20454;-77
2022/08/19 09:26:16;;;;;;;26.60;24.20;;;22.20;97.20;;;;;;1734048;28;20231;-76
2022/08/19 09:27:07;;;;;;;26.35;23.85;;;22.20;97.20;;;;;;1734096;28;20211;-76
2022/08/19 09:28:02;;;;;;;26.87;24.30;;;22.20;97.20;;;;;;1734108;28;20286;-76
2022/08/19 09:28:54;;;;;;;24.25;21.95;;;22.20;97.20;;;;;;1734002;28;20204;-77
2022/08/19 09:29:47;;;;;;;26.52;23.83;;;22.20;97.20;;;;;;1734272;28;20525;-77
2022/08/19 09:30:40;;;;;;;25.17;23.08;;;22.20;97.20;;;;;;1733515;28;20207;-77
2022/08/19 09:31:33;;;;;;;25.65;23.45;;;22.20;97.20;;;;;;1734278;28;20217;-76
2022/08/19 09:32:26;;;;;;;26.38;23.98;;;22.20;97.20;;;;;;1734215;28;20208;-77
2022/08/19 09:33:18;;;;;;;26.20;23.83;;;22.20;97.20;;;;;;1734241;28;20674;-76
2022/08/19 09:34:08;;;;;;;26.27;23.80;;;22.20;97.20;;;;;;1734392;28;20603;-77
2022/08/19 09:35:01;;;;;;;24.37;22.37;;;22.20;97.20;;;;;;1734261;28;20291;-76
2022/08/19 09:36:03;;;;;;;26.00;23.60;;;22.20;97.20;;;;;;1733924;28;20640;-76
2022/08/19 09:36:57;;;;;;;25.50;23.20;;;22.20;97.20;;;;;;1734067;28;20192;-77
2022/08/19 09:37:49;;;;;;;26.65;24.05;;;22.20;97.20;;;;;;1734031;28;20572;-76
2022/08/19 09:38:42;;;;;;;24.15;22.05;;;22.20;97.20;;;;;;1734047;28;20208;-76
2022/08/19 09:39:32;;;;;;;26.73;24.50;;;22.20;97.20;;;;;;1734151;28;20599;-76
2022/08/19 09:40:25;;;;;;;26.43;24.10;;;22.20;97.20;;;;;;1734064;28;20665;-76
2022/08/19 09:41:19;;;;;;;25.88;23.38;;;22.20;97.20;;;;;;1733682;28;20345;-77
2022/08/19 09:42:13;;;;;;;25.58;23.27;;;22.20;97.20;;;;;;1733984;28;20199;-76
2022/08/19 09:43:07;;;;;;;25.52;23.27;;;22.20;97.20;;;;;;1733856;28;20253;-76